首页
METAR-TAF:

METAR-TAF

机场 :

Joplin Regional Airport

Joplin, 密蘇里州, 美国

纬度: 37-09-22N, 经度: 094-30-02W, 海拔: 299米

当前天气观测

该预报发布于53分钟前的09:53 UTC
风速9节,风向南转南东,有时为18节阵风
温度 15°C
湿度 51%
气压 1013 hPa
能見度: 16.1公里
天空无云

METAR: KJLN 020953Z AUTO 15009G18KT 10SM CLR 15/05 A2991 RMK AO2 SLP122 T01500050

时间: 05:46 (10:46 UTC)

预报

该预报发布于5小时和26分钟前的05:20 UTC
预报有效从02日的 06点(UTC)到 03日的 06点(UTC)
风速8节,风向南转南东
能見度: 10公里
天空无云
从 02日的 1500点(UTC)
风速18节,风向,有时为26节阵风
能見度: 10公里
多云层高于25000英尺
从 02日的 1700点(UTC)
风速18节,风向,有时为28节阵风
能見度: 10公里
多云层高于8000英尺
多云层高于12000英尺
几率 30%
从 02日的 17点(UTC)到 02日的 20点(UTC)
能見度: 6.4公里
阴天层高于2500英尺
小阵雨
从 02日的 2200点(UTC)
风速15节,风向南转南东
能見度: 10公里
多云层高于6000英尺
几率 30%
从 02日的 22点(UTC)到 02日的 23点(UTC)
能見度: 6.4公里
阴天层高于2500英尺
小阵雨
从 03日的 0500点(UTC)
风速8节,风向
能見度: 10公里
多云层高于4500英尺

TAF: KJLN 020520Z 0206/0306 16008KT P6SM SKC FM021500 17018G26KT P6SM BKN250 FM021700 17018G28KT P6SM BKN080 BKN120 PROB30 0217/0220 4SM -SHRA OVC025 FM022200 16015KT P6SM BKN060 PROB30 0222/0223 4SM -SHRA OVC025 FM030500 17008KT P6SM BKN045

超过4000个机场的气象观测和天气预报(METAR&TAF报告)。

可查询的气象台以黄色和红色小点在地图上表示。

将鼠标移到小点上方,可查看气象台名称。

然后点击查看天气观测和预报。

如需切换地图:点击带黑十字的绿色按钮放大地图;点击带横线的绿色按钮缩小地图;或者点击绿色箭头查看邻近地区的地图。


METAR-TAF: